Time;durP1;ratioP1;P1;durP2;ratioP2;P2;SDS_P1;SDS_P2;PMS_P1;PMS_P2;Temp;Humidity;BMP_temperature;BMP_pressure;BME280_temperature;BME280_humidity;BME280_pressure;Samples;Min_cycle;Max_cycle;Signal;HPM_P1;HPM_P2
2024/01/30 00:02:15;;;;;;;8.93;8.13;;;0.70;99.90;;;1.34;100.00;99305.66;10380905;28;20241;-66
2024/01/30 00:07:18;;;;;;;8.27;7.47;;;0.60;99.90;;;1.17;100.00;99307.81;10382154;28;20271;-66
2024/01/30 00:12:22;;;;;;;9.10;8.20;;;0.40;99.90;;;1.04;100.00;99302.97;10378571;28;20641;-66
2024/01/30 00:17:26;;;;;;;8.33;7.50;;;0.40;99.90;;;1.05;100.00;99301.34;10376822;28;20228;-67
2024/01/30 00:22:30;;;;;;;8.33;7.63;;;0.40;99.90;;;1.04;100.00;99302.06;10378652;28;20236;-66
2024/01/30 00:27:34;;;;;;;10.83;9.13;;;0.30;99.90;;;1.11;100.00;99299.53;10382856;28;20236;-66
2024/01/30 00:32:38;;;;;;;8.13;7.33;;;0.40;99.90;;;1.15;100.00;99310.88;10378990;28;20646;-66
2024/01/30 00:37:41;;;;;;;7.87;7.20;;;0.40;99.90;;;1.08;100.00;99311.78;10380522;28;20223;-66
2024/01/30 00:42:45;;;;;;;7.77;7.07;;;0.30;99.90;;;0.86;100.00;99314.31;10377890;28;20235;-66
2024/01/30 00:47:49;;;;;;;8.70;7.63;;;0.10;99.90;;;0.88;100.00;99307.81;10381489;28;20220;-66
2024/01/30 00:52:52;;;;;;;7.80;7.20;;;0.20;99.90;;;0.88;100.00;99309.44;10380854;28;20341;-66
2024/01/30 00:57:57;;;;;;;8.40;7.63;;;0.20;99.90;;;0.85;100.00;99314.13;10379910;28;20276;-66
2024/01/30 01:03:00;;;;;;;11.83;9.67;;;0.20;99.90;;;0.88;100.00;99317.00;10378303;28;21029;-66
2024/01/30 01:08:04;;;;;;;8.13;7.33;;;0.10;99.90;;;0.81;100.00;99312.84;10380620;28;20232;-67
2024/01/30 01:13:09;;;;;;;8.90;8.00;;;0.10;99.90;;;0.64;100.00;99312.50;10376854;28;20230;-66
2024/01/30 01:18:12;;;;;;;9.10;8.30;;;0.00;99.90;;;0.70;100.00;99308.19;10375488;28;20237;-67
2024/01/30 01:23:15;;;;;;;9.30;8.40;;;0.10;99.90;;;0.72;100.00;99321.84;10375980;28;20239;-66
2024/01/30 01:28:20;;;;;;;8.60;7.83;;;0.10;99.90;;;0.86;100.00;99315.94;10380186;28;20222;-66
2024/01/30 01:33:23;;;;;;;8.00;7.30;;;0.10;99.90;;;0.88;100.00;99319.50;10366433;28;20321;-66
2024/01/30 01:38:26;;;;;;;7.57;6.87;;;0.10;99.90;;;0.71;100.00;99327.56;10366008;28;20237;-66
2024/01/30 01:43:31;;;;;;;6.80;6.20;;;0.00;99.90;;;0.59;100.00;99323.63;10366520;28;20585;-66
2024/01/30 01:48:34;;;;;;;7.90;7.30;;;-0.10;99.90;;;0.61;100.00;99324.69;10364855;28;20313;-66
2024/01/30 01:53:38;;;;;;;7.73;7.03;;;-0.10;99.90;;;0.63;100.00;99319.13;10365629;28;20240;-66
2024/01/30 01:58:43;;;;;;;8.33;7.67;;;-0.10;99.90;;;0.49;100.00;99320.72;10366509;28;20233;-66
2024/01/30 02:03:47;;;;;;;7.57;6.97;;;-0.20;99.90;;;0.43;100.00;99316.78;10366427;28;20308;-66
2024/01/30 02:08:50;;;;;;;7.67;7.03;;;-0.20;99.90;;;0.53;100.00;99318.75;10366431;28;20225;-66
2024/01/30 02:13:55;;;;;;;8.00;7.30;;;-0.20;99.90;;;0.62;100.00;99318.94;10364193;28;20733;-66
2024/01/30 02:18:58;;;;;;;8.07;7.47;;;-0.10;99.90;;;0.53;100.00;99322.88;10365085;28;20237;-66
2024/01/30 02:24:04;;;;;;;7.70;7.00;;;-0.10;99.90;;;0.60;100.00;99320.38;10365436;28;20231;-66
2024/01/30 02:29:07;;;;;;;8.73;7.60;;;0.00;99.90;;;0.56;100.00;99319.13;10367847;28;20231;-66
2024/01/30 02:34:10;;;;;;;9.03;8.23;;;-0.10;99.90;;;0.60;100.00;99316.25;10370719;28;20330;-67
2024/01/30 02:39:15;;;;;;;10.03;9.10;;;0.00;99.90;;;0.63;100.00;99311.59;10373289;28;20233;-66
2024/01/30 02:44:19;;;;;;;12.13;10.70;;;0.00;99.90;;;0.71;100.00;99312.47;10372279;28;20233;-66
2024/01/30 02:49:22;;;;;;;11.70;10.50;;;0.10;99.90;;;0.81;100.00;99322.94;10371850;28;20226;-66
2024/01/30 02:54:27;;;;;;;10.13;9.13;;;0.20;99.90;;;0.89;100.00;99304.59;10370733;28;20612;-66
2024/01/30 02:59:33;;;;;;;10.00;8.70;;;0.20;99.90;;;0.85;100.00;99307.44;10371849;28;20372;-66
2024/01/30 03:04:36;;;;;;;9.93;9.03;;;0.20;99.90;;;0.80;100.00;99311.06;10370280;28;20618;-67
2024/01/30 03:09:43;;;;;;;11.00;9.90;;;0.20;99.90;;;0.80;100.00;99308.56;10373167;28;20236;-66
2024/01/30 03:14:47;;;;;;;11.03;9.97;;;0.20;99.90;;;0.85;100.00;99304.03;10369979;28;20789;-66
2024/01/30 03:19:50;;;;;;;10.00;9.00;;;0.30;99.90;;;0.88;100.00;99299.38;10372319;28;20544;-67
2024/01/30 03:24:54;;;;;;;9.33;8.60;;;0.20;99.90;;;0.86;100.00;99301.72;10371416;28;20231;-66
2024/01/30 03:29:58;;;;;;;10.17;9.03;;;0.20;99.90;;;0.79;100.00;99301.69;10371601;28;20232;-66
2024/01/30 03:35:01;;;;;;;9.20;8.40;;;0.20;99.90;;;0.81;100.00;99307.81;10370176;28;20237;-66
2024/01/30 03:40:07;;;;;;;9.63;8.83;;;0.20;99.90;;;0.73;100.00;99306.03;10369117;28;20261;-67
2024/01/30 03:45:11;;;;;;;10.20;9.20;;;0.20;99.90;;;0.81;100.00;99312.84;10369336;28;20806;-66
2024/01/30 03:50:14;;;;;;;10.83;9.73;;;0.20;99.90;;;0.77;100.00;99307.28;10370278;28;20612;-66
2024/01/30 03:55:19;;;;;;;10.73;9.63;;;0.10;99.90;;;0.74;100.00;99319.50;10370470;28;20253;-67
2024/01/30 04:00:22;;;;;;;11.53;10.33;;;0.10;99.90;;;0.71;100.00;99314.09;10369074;28;20240;-66
2024/01/30 04:05:25;;;;;;;11.93;10.83;;;0.10;99.90;;;0.69;100.00;99318.97;10369046;28;20315;-66
2024/01/30 04:10:30;;;;;;;13.00;11.17;;;0.10;99.90;;;0.73;100.00;99321.13;10369938;28;20230;-66
2024/01/30 04:15:33;;;;;;;13.27;11.87;;;0.10;99.90;;;0.65;100.00;99315.16;10368752;28;20316;-66
2024/01/30 04:20:36;;;;;;;12.20;10.77;;;0.10;99.90;;;0.61;100.00;99319.66;10367434;28;20232;-66
2024/01/30 04:25:41;;;;;;;10.97;9.87;;;0.00;99.90;;;0.65;100.00;99325.22;10367898;28;20722;-66
2024/01/30 04:30:44;;;;;;;11.53;10.33;;;0.00;99.90;;;0.75;100.00;99318.78;10367318;28;20221;-66
2024/01/30 04:35:47;;;;;;;12.77;10.57;;;0.10;99.90;;;0.66;100.00;99323.63;10368531;28;20234;-66
2024/01/30 04:40:52;;;;;;;10.50;9.50;;;0.00;99.90;;;0.75;100.00;99317.16;10366329;28;20651;-66
2024/01/30 04:45:55;;;;;;;9.33;8.50;;;0.00;99.90;;;0.60;100.00;99321.28;10366898;28;20708;-66
2024/01/30 04:51:01;;;;;;;8.63;7.80;;;-0.10;99.90;;;0.39;100.00;99324.66;10366965;28;20227;-66
2024/01/30 04:56:06;;;;;;;8.90;8.10;;;-0.20;99.90;;;0.38;100.00;99322.84;10372276;28;20759;-67
2024/01/30 05:01:09;;;;;;;8.90;8.10;;;-0.20;99.90;;;0.47;100.00;99322.16;10365826;28;20824;-66
2024/01/30 05:06:13;;;;;;;10.07;9.07;;;-0.20;99.90;;;0.37;100.00;99326.09;10365409;28;20730;-67
2024/01/30 05:11:17;;;;;;;10.10;9.20;;;-0.30;99.90;;;0.38;100.00;99327.00;10365516;28;20239;-67
2024/01/30 05:16:21;;;;;;;9.27;8.37;;;-0.30;99.90;;;0.35;100.00;99332.56;10362748;28;20233;-68
2024/01/30 05:21:24;;;;;;;9.90;8.87;;;-0.30;99.90;;;0.36;100.00;99328.41;10362583;28;20237;-68
2024/01/30 05:26:28;;;;;;;9.57;8.63;;;-0.30;99.90;;;0.40;100.00;99326.47;10362207;28;20238;-67
2024/01/30 05:31:32;;;;;;;11.80;10.60;;;-0.20;99.90;;;0.42;100.00;99327.53;10371474;28;20238;-67
2024/01/30 05:36:35;;;;;;;12.00;10.80;;;-0.20;99.90;;;0.46;100.00;99326.31;10370494;28;20725;-67
2024/01/30 05:41:39;;;;;;;10.87;9.77;;;-0.10;99.90;;;0.48;100.00;99336.53;10368360;28;20714;-68
2024/01/30 05:46:43;;;;;;;11.97;10.50;;;-0.10;99.90;;;0.38;100.00;99337.94;10368926;28;20221;-67
2024/01/30 05:51:46;;;;;;;12.23;11.00;;;-0.20;99.90;;;0.40;100.00;99326.47;10370643;28;20239;-67
2024/01/30 05:56:51;;;;;;;12.47;11.17;;;-0.20;99.90;;;0.48;100.00;99336.53;10369254;28;20230;-67
2024/01/30 06:01:54;;;;;;;12.37;11.27;;;-0.10;99.90;;;0.36;100.00;99333.44;10370496;28;20240;-67
2024/01/30 06:06:57;;;;;;;13.50;12.10;;;-0.20;99.90;;;0.32;100.00;99342.25;10376975;28;20236;-68
2024/01/30 06:12:02;;;;;;;11.83;10.63;;;-0.10;99.90;;;0.36;100.00;99334.34;10379730;28;20239;-67
2024/01/30 06:17:05;;;;;;;12.60;11.30;;;-0.10;99.90;;;0.37;100.00;99337.75;10377661;28;20235;-67
2024/01/30 06:22:09;;;;;;;11.13;10.03;;;-0.10;99.90;;;0.37;100.00;99341.19;10378666;28;20267;-67
2024/01/30 06:27:13;;;;;;;12.17;10.87;;;-0.10;99.90;;;0.47;100.00;99339.78;10377695;28;20259;-67
2024/01/30 06:32:16;;;;;;;12.47;11.17;;;-0.10;99.90;;;0.49;100.00;99335.78;10378759;28;20614;-68
2024/01/30 06:37:19;;;;;;;12.07;10.97;;;-0.10;99.90;;;0.50;100.00;99333.47;10377291;28;20227;-67
2024/01/30 06:42:24;;;;;;;12.40;11.20;;;-0.10;99.90;;;0.43;100.00;99341.03;10377145;28;20344;-67
2024/01/30 06:47:28;;;;;;;12.37;11.13;;;-0.10;99.90;;;0.50;100.00;99345.16;10377805;28;20237;-68
2024/01/30 06:52:31;;;;;;;13.07;11.77;;;-0.10;99.90;;;0.47;100.00;99347.31;10376592;28;20318;-67
2024/01/30 06:57:36;;;;;;;13.13;11.73;;;0.00;99.90;;;0.50;100.00;99356.13;10377067;28;20235;-67
2024/01/30 07:02:39;;;;;;;11.37;10.17;;;0.00;99.90;;;0.55;100.00;99352.53;10375988;28;21098;-67
2024/01/30 07:07:42;;;;;;;11.70;10.60;;;0.00;99.90;;;0.54;100.00;99354.84;10377803;28;20609;-67
2024/01/30 07:12:47;;;;;;;12.17;10.97;;;0.00;99.90;;;0.55;100.00;99354.16;10376663;28;20236;-67
2024/01/30 07:17:50;;;;;;;12.77;11.50;;;0.00;99.90;;;0.68;100.00;99359.91;10375691;28;20387;-67
2024/01/30 07:22:53;;;;;;;11.63;10.43;;;0.10;99.90;;;0.79;100.00;99363.72;10376322;28;20260;-67
2024/01/30 07:27:58;;;;;;;11.27;10.17;;;0.20;99.90;;;0.88;100.00;99365.69;10376013;28;20233;-66
2024/01/30 07:33:01;;;;;;;11.20;9.73;;;0.40;99.90;;;0.97;100.00;99367.50;10374572;28;20257;-68
2024/01/30 07:38:05;;;;;;;11.03;10.03;;;0.50;99.90;;;1.19;100.00;99366.81;10376213;28;21899;-67
2024/01/30 07:43:10;;;;;;;11.23;9.90;;;0.60;99.90;;;1.39;100.00;99368.25;10374483;28;20240;-66
2024/01/30 07:48:13;;;;;;;11.17;10.17;;;0.80;99.90;;;1.73;100.00;99376.47;10375744;28;20971;-67
2024/01/30 07:53:17;;;;;;;12.00;10.97;;;1.10;99.90;;;1.77;98.08;99376.13;10375415;28;20235;-67
2024/01/30 07:58:23;;;;;;;12.47;11.37;;;1.10;99.90;;;1.89;98.66;99360.56;10373709;28;20736;-68
2024/01/30 08:03:27;;;;;;;10.47;9.37;;;1.20;99.90;;;2.04;97.37;99372.44;10377485;28;20601;-67
2024/01/30 08:08:30;;;;;;;10.80;9.80;;;1.30;99.90;;;2.11;97.93;99374.91;10393893;28;20771;-67
2024/01/30 08:13:34;;;;;;;11.80;10.43;;;1.50;99.90;;;2.47;98.27;99357.09;10395077;28;20243;-67
2024/01/30 08:18:37;;;;;;;12.03;10.83;;;1.80;99.90;;;2.70;95.08;99364.72;10393097;28;20227;-67
2024/01/30 08:23:41;;;;;;;12.97;11.67;;;2.00;99.90;;;2.71;93.41;99362.34;10412967;28;20239;-67
2024/01/30 08:28:45;;;;;;;10.63;9.60;;;2.10;99.90;;;2.80;94.01;99365.00;10405701;28;20227;-68
2024/01/30 08:33:49;;;;;;;11.03;9.93;;;2.20;99.90;;;2.74;93.33;99368.47;10414695;28;20259;-67
2024/01/30 08:38:52;;;;;;;11.47;10.47;;;2.10;99.90;;;3.03;93.93;99359.97;10408048;28;20228;-67
2024/01/30 08:44:04;;;;;;;12.53;11.33;;;2.50;99.90;;;3.12;92.88;99363.53;10408243;28;20768;-67
2024/01/30 08:49:07;;;;;;;14.80;13.27;;;2.60;99.90;;;3.38;91.91;99361.34;10399747;28;20794;-67
2024/01/30 08:54:11;;;;;;;13.97;12.57;;;2.80;99.90;;;3.70;91.46;99365.56;10399347;28;20260;-67
2024/01/30 08:59:15;;;;;;;13.17;11.93;;;3.10;99.90;;;3.76;88.30;99356.09;10403966;28;20221;-67
2024/01/30 09:04:19;;;;;;;14.13;12.70;;;3.20;99.90;;;4.10;88.39;99363.13;10396059;28;20248;-67
2024/01/30 09:09:24;;;;;;;13.83;12.43;;;3.50;99.90;;;4.33;88.50;99360.50;10402294;28;20275;-65
2024/01/30 09:14:29;;;;;;;14.63;13.23;;;3.70;99.90;;;4.61;87.96;99356.69;10414404;28;20234;-66
2024/01/30 09:19:32;;;;;;;14.73;13.23;;;4.10;99.90;;;4.97;86.64;99357.03;10410634;28;20411;-67
2024/01/30 09:24:36;;;;;;;15.50;14.10;;;4.30;99.90;;;5.27;86.60;99358.41;10402557;28;20234;-69
2024/01/30 09:29:40;;;;;;;13.80;12.50;;;4.70;99.90;;;5.57;84.93;99362.22;10412509;28;20321;-66
2024/01/30 09:34:43;;;;;;;14.80;13.37;;;5.00;99.90;;;5.97;83.59;99363.72;10401848;28;20243;-65
2024/01/30 09:39:47;;;;;;;14.47;13.17;;;5.20;99.90;;;6.27;81.50;99356.56;10399272;28;20692;-66
2024/01/30 09:44:52;;;;;;;14.33;12.93;;;5.60;99.90;;;6.70;79.33;99364.94;10401171;28;20232;-66
2024/01/30 09:49:57;;;;;;;14.20;12.87;;;6.00;99.90;;;6.80;79.07;99366.69;10411263;28;20738;-65
2024/01/30 09:55:02;;;;;;;16.23;14.70;;;6.10;99.90;;;6.75;78.34;99359.53;10407302;28;20247;-66
2024/01/30 10:00:08;;;;;;;14.67;13.17;;;6.00;99.90;;;6.84;79.31;99363.69;10407429;28;20278;-66
2024/01/30 10:05:16;;;;;;;15.83;14.23;;;6.10;99.90;;;7.13;79.30;99359.75;10414536;28;20236;-66
2024/01/30 10:10:20;;;;;;;15.23;13.80;;;6.40;99.90;;;7.47;77.74;99346.72;10410223;28;20292;-67
2024/01/30 10:15:25;;;;;;;14.73;13.43;;;6.80;99.90;;;7.46;77.35;99345.84;10415363;28;20230;-66
2024/01/30 10:20:28;;;;;;;15.20;13.70;;;6.70;99.90;;;7.61;75.88;99342.19;10416392;28;20900;-65
2024/01/30 10:25:32;;;;;;;16.03;13.70;;;6.80;99.90;;;7.64;77.16;99345.03;10412078;28;20225;-66
2024/01/30 10:30:37;;;;;;;14.10;12.70;;;7.00;99.90;;;7.80;77.30;99341.34;10403564;28;20725;-66
2024/01/30 10:35:40;;;;;;;14.10;12.70;;;7.20;99.90;;;8.00;76.22;99335.50;10416677;28;20229;-67
2024/01/30 10:40:45;;;;;;;12.27;11.07;;;7.40;99.90;;;8.23;77.15;99333.38;10420736;28;20225;-69
2024/01/30 10:45:54;;;;;;;14.53;13.03;;;7.60;99.90;;;8.51;75.36;99326.59;10410647;28;20241;-65
2024/01/30 10:51:00;;;;;;;14.57;13.03;;;7.80;99.90;;;8.76;74.09;99331.31;10412165;28;20575;-66
2024/01/30 10:56:05;;;;;;;15.47;12.97;;;8.00;99.90;;;8.88;74.68;99332.38;10408148;28;20681;-66
2024/01/30 11:01:11;;;;;;;14.43;13.03;;;8.10;99.90;;;8.98;73.30;99321.31;10406790;28;20304;-65
2024/01/30 11:06:18;;;;;;;12.73;11.43;;;8.30;99.90;;;9.18;73.05;99317.94;10389936;28;20224;-67
2024/01/30 11:11:22;;;;;;;18.70;14.57;;;8.40;99.90;;;9.20;72.32;99321.50;10402136;28;20230;-66
2024/01/30 11:16:33;;;;;;;14.68;13.30;;;8.40;99.90;;;9.34;72.64;99307.41;10407733;28;20222;-66
2024/01/30 11:21:42;;;;;;;15.13;12.63;;;8.50;99.90;;;9.34;72.34;99303.19;10409138;28;20245;-66
2024/01/30 11:26:45;;;;;;;12.50;11.30;;;8.60;99.90;;;9.44;70.95;99315.06;10407171;28;20681;-66
2024/01/30 11:31:57;;;;;;;12.68;11.40;;;8.60;99.90;;;9.57;70.73;99294.03;10382462;28;20233;-67
2024/01/30 11:37:04;;;;;;;15.50;13.95;;;8.70;99.90;;;9.64;71.35;99294.69;10404158;28;20232;-65
2024/01/30 11:42:09;;;;;;;14.75;13.35;;;8.90;99.90;;;9.87;70.46;99286.38;10418118;28;20233;-68
2024/01/30 11:47:15;;;;;;;13.23;11.93;;;9.00;99.90;;;9.88;70.96;99283.03;10419275;28;20655;-65
2024/01/30 11:52:18;;;;;;;13.85;12.45;;;9.10;99.90;;;9.90;70.97;99281.53;10416763;28;20232;-66
2024/01/30 11:57:21;;;;;;;14.10;12.73;;;9.10;99.90;;;9.98;69.91;99281.25;10403942;28;20226;-66
2024/01/30 12:02:26;;;;;;;15.25;13.70;;;9.20;99.90;;;10.13;71.96;99270.63;10412619;28;20234;-66
2024/01/30 12:07:30;;;;;;;14.25;12.85;;;9.30;99.90;;;10.24;71.13;99278.25;10414443;28;20229;-66
2024/01/30 12:12:33;;;;;;;17.80;14.02;;;9.50;99.90;;;10.47;70.98;99269.91;10416309;28;20253;-67
2024/01/30 12:17:38;;;;;;;13.40;12.00;;;9.60;99.90;;;10.41;70.33;99266.88;10402451;28;20230;-66
2024/01/30 12:22:43;;;;;;;14.20;12.80;;;9.60;99.90;;;10.49;70.67;99256.50;10401968;28;20673;-65
2024/01/30 12:27:49;;;;;;;12.43;11.23;;;9.70;99.90;;;10.72;67.33;99255.75;10401826;28;20620;-66
2024/01/30 12:32:55;;;;;;;11.15;10.15;;;9.90;99.90;;;10.78;65.14;99252.78;10400697;28;20260;-66
2024/01/30 12:37:58;;;;;;;9.77;8.82;;;10.00;99.90;;;10.92;64.90;99246.22;10399754;28;20232;-67
2024/01/30 12:43:01;;;;;;;11.23;10.10;;;10.20;99.90;;;11.01;66.35;99242.69;10393685;28;20752;-67
2024/01/30 12:48:07;;;;;;;12.10;10.63;;;10.30;99.90;;;11.22;66.11;99238.34;10409170;28;20228;-67
2024/01/30 12:53:12;;;;;;;12.95;11.70;;;10.50;99.90;;;11.27;67.41;99239.59;10398356;28;20312;-66
2024/01/30 12:58:15;;;;;;;11.18;10.18;;;10.50;99.90;;;11.33;68.20;99233.16;10404621;28;20651;-66
2024/01/30 13:03:20;;;;;;;11.23;10.23;;;10.50;99.90;;;11.47;68.17;99230.88;10396042;28;20238;-67
2024/01/30 13:08:23;;;;;;;11.15;10.07;;;10.60;99.90;;;11.47;68.38;99228.31;10399745;28;20644;-66
2024/01/30 13:13:26;;;;;;;13.68;10.82;;;10.70;99.90;;;11.49;67.33;99224.19;10397266;28;20252;-66
2024/01/30 13:18:31;;;;;;;9.15;8.23;;;10.70;99.90;;;11.62;67.08;99228.56;10407882;28;20287;-66
2024/01/30 13:23:34;;;;;;;9.00;8.10;;;10.80;99.90;;;11.66;66.05;99230.56;10394047;28;20230;-66
2024/01/30 13:28:37;;;;;;;7.82;7.13;;;10.80;99.90;;;11.72;65.57;99230.16;10406238;28;20633;-66
2024/01/30 13:33:42;;;;;;;8.40;7.43;;;10.90;99.90;;;11.75;64.77;99232.03;10394188;28;20264;-65
2024/01/30 13:38:45;;;;;;;9.13;8.23;;;10.90;99.90;;;11.74;64.01;99238.84;10388976;28;20283;-67
2024/01/30 13:43:48;;;;;;;8.90;7.75;;;10.90;99.90;;;11.77;63.61;99240.75;10396764;28;20230;-66
2024/01/30 13:48:54;;;;;;;9.00;7.82;;;10.90;99.90;;;11.83;62.73;99239.53;10385644;28;20226;-66
2024/01/30 13:53:57;;;;;;;9.00;8.15;;;11.00;99.90;;;12.02;62.14;99243.47;10399631;28;20230;-66
2024/01/30 13:59:01;;;;;;;8.25;7.45;;;11.10;99.90;;;11.99;62.48;99243.25;10392259;28;20570;-66
2024/01/30 14:04:06;;;;;;;10.48;9.38;;;11.10;99.90;;;12.06;63.33;99241.25;10390783;28;20807;-67
2024/01/30 14:09:14;;;;;;;9.30;8.48;;;11.20;99.90;;;12.07;64.68;99250.72;10393312;28;20229;-65
2024/01/30 14:14:18;;;;;;;9.15;8.20;;;11.20;99.90;;;12.11;63.71;99252.75;10393069;28;20237;-66
2024/01/30 14:19:23;;;;;;;9.43;8.50;;;11.20;99.90;;;12.24;61.79;99245.94;10394025;28;20221;-67
2024/01/30 14:24:26;;;;;;;8.02;7.22;;;11.30;99.90;;;12.15;61.47;99251.28;10388458;28;20724;-65
2024/01/30 14:29:29;;;;;;;7.47;6.75;;;11.20;99.90;;;11.95;62.53;99242.13;10394570;28;20232;-66
2024/01/30 14:34:34;;;;;;;6.43;5.82;;;11.10;99.90;;;11.86;62.49;99234.66;10397402;28;20235;-65
2024/01/30 14:39:37;;;;;;;6.20;5.65;;;11.00;99.90;;;12.21;58.39;99245.72;10394611;28;20231;-66
2024/01/30 14:44:40;;;;;;;8.90;7.15;;;11.10;99.90;;;12.02;58.69;99246.03;10395767;28;20235;-67
2024/01/30 14:49:45;;;;;;;6.95;6.00;;;11.00;99.90;;;11.87;61.00;99249.25;10392484;28;20226;-65
2024/01/30 14:54:48;;;;;;;7.28;5.75;;;10.90;99.90;;;12.14;56.43;99245.28;10395599;28;20257;-66
2024/01/30 14:59:51;;;;;;;7.10;6.50;;;11.00;99.90;;;11.99;55.41;99249.28;10387136;28;20705;-66
2024/01/30 15:04:56;;;;;;;8.13;7.10;;;11.00;99.90;;;11.77;56.91;99251.00;10393270;28;20256;-66
2024/01/30 15:09:59;;;;;;;9.02;7.00;;;10.90;99.90;;;11.41;58.42;99244.88;10387363;28;20229;-66
2024/01/30 15:15:03;;;;;;;7.72;6.93;;;10.60;99.90;;;11.42;56.58;99262.91;10394149;28;20709;-66
2024/01/30 15:20:09;;;;;;;7.53;6.82;;;10.50;99.90;;;11.14;57.82;99261.56;10393003;28;20229;-66
2024/01/30 15:25:13;;;;;;;7.50;6.60;;;10.20;99.90;;;10.86;59.57;99271.31;10394897;28;20557;-66
2024/01/30 15:30:16;;;;;;;6.32;5.70;;;9.90;99.90;;;10.68;61.17;99278.44;10391461;28;20304;-66
2024/01/30 15:35:21;;;;;;;10.40;9.30;;;9.80;99.90;;;10.49;61.86;99282.06;10393297;28;20241;-65
2024/01/30 15:40:24;;;;;;;11.10;9.95;;;9.60;99.90;;;10.25;65.28;99293.72;10396965;28;20224;-65
2024/01/30 15:45:27;;;;;;;7.78;7.07;;;9.30;99.90;;;9.99;67.69;99309.47;10390242;28;20252;-65
2024/01/30 15:50:33;;;;;;;7.45;6.82;;;9.10;99.90;;;9.79;69.41;99300.16;10390643;28;20260;-65
2024/01/30 15:55:36;;;;;;;13.55;12.18;;;8.90;99.90;;;9.58;70.99;99309.44;10446747;22;20225;-66
2024/01/30 16:00:39;;;;;;;12.25;11.15;;;8.70;99.90;;;9.41;70.87;99313.16;10431205;28;20221;-64
2024/01/30 16:05:44;;;;;;;12.68;10.88;;;8.50;99.90;;;9.25;73.31;99318.59;10403539;28;20229;-67
2024/01/30 16:10:47;;;;;;;11.43;10.27;;;8.30;99.90;;;9.09;73.70;99317.16;10420311;28;20232;-66
2024/01/30 16:15:50;;;;;;;12.00;10.70;;;8.20;99.90;;;8.91;75.41;99334.31;10406813;28;21025;-65
2024/01/30 16:20:54;;;;;;;8.20;7.47;;;8.00;99.90;;;8.79;80.21;99345.22;10406189;28;20224;-65
2024/01/30 16:25:57;;;;;;;8.20;7.40;;;8.00;99.90;;;8.70;79.74;99346.03;10418031;28;20240;-66
2024/01/30 16:31:02;;;;;;;7.82;7.03;;;7.90;99.90;;;8.56;79.63;99340.63;10414078;28;20621;-66
2024/01/30 16:36:07;;;;;;;7.65;6.95;;;7.70;99.90;;;8.40;81.31;99342.56;10412266;28;20640;-66
2024/01/30 16:41:10;;;;;;;6.47;5.83;;;7.60;99.90;;;8.25;81.92;99351.38;10416851;28;20248;-65
2024/01/30 16:46:13;;;;;;;6.77;6.10;;;7.40;99.90;;;8.15;82.55;99358.91;10417153;28;20225;-65
2024/01/30 16:51:18;;;;;;;6.65;5.70;;;7.30;99.90;;;8.04;83.48;99353.75;10416674;28;20233;-65
2024/01/30 16:56:21;;;;;;;7.73;7.03;;;7.20;99.90;;;7.93;83.66;99362.06;10420049;28;20225;-65
2024/01/30 17:01:24;;;;;;;7.00;6.40;;;7.10;99.90;;;7.83;84.77;99364.50;10431052;28;20635;-66
2024/01/30 17:06:29;;;;;;;7.73;7.03;;;7.00;99.90;;;7.72;84.92;99362.63;10433831;28;20672;-64
2024/01/30 17:11:32;;;;;;;8.20;7.50;;;6.90;99.90;;;7.65;85.41;99368.81;10448037;28;20224;-66
2024/01/30 17:16:36;;;;;;;6.97;6.37;;;6.80;99.90;;;7.58;85.75;99366.44;10429352;28;20746;-66
2024/01/30 17:21:41;;;;;;;6.53;5.93;;;6.60;99.90;;;7.44;85.86;99380.44;10409218;28;20235;-66
2024/01/30 17:26:44;;;;;;;6.63;6.03;;;6.60;99.90;;;7.46;85.40;99386.53;10403559;28;20740;-66
2024/01/30 17:31:48;;;;;;;6.83;6.20;;;6.60;99.90;;;7.34;86.39;99390.50;10400601;28;20609;-66
2024/01/30 17:36:52;;;;;;;7.83;7.10;;;6.50;99.90;;;7.24;87.74;99396.38;10419181;28;20231;-65
2024/01/30 17:41:55;;;;;;;7.50;6.80;;;6.40;99.90;;;7.11;89.04;99386.66;10417713;28;20721;-65
2024/01/30 17:46:58;;;;;;;8.77;7.97;;;6.30;99.90;;;7.09;89.33;99389.81;10402029;28;20790;-65
2024/01/30 17:52:03;;;;;;;8.73;7.87;;;6.30;99.90;;;6.98;90.10;99398.94;10406129;28;20240;-65
2024/01/30 17:57:06;;;;;;;11.23;9.77;;;6.10;99.90;;;6.98;91.03;99404.03;10407215;28;21287;-65
2024/01/30 18:02:11;;;;;;;11.60;10.40;;;6.10;99.90;;;6.90;91.77;99408.41;10414192;28;20237;-65
2024/01/30 18:07:16;;;;;;;13.07;11.70;;;6.10;99.90;;;6.81;92.38;99411.66;10425120;28;20754;-65
2024/01/30 18:12:19;;;;;;;13.30;11.83;;;6.00;99.90;;;6.79;91.79;99420.81;10415425;28;20244;-63
2024/01/30 18:17:22;;;;;;;11.97;10.77;;;6.00;99.90;;;6.82;92.62;99427.09;10424247;28;20239;-66
2024/01/30 18:22:27;;;;;;;13.90;12.70;;;6.00;99.90;;;6.73;94.19;99436.38;10413976;28;20241;-65
2024/01/30 18:27:30;;;;;;;14.83;13.70;;;5.90;99.90;;;6.63;94.41;99429.47;10407531;28;20241;-66
2024/01/30 18:32:33;;;;;;;14.03;12.83;;;5.90;99.90;;;6.62;94.52;99437.84;10415651;28;20228;-65
2024/01/30 18:37:38;;;;;;;10.97;10.00;;;5.80;99.90;;;6.53;95.82;99437.84;10418648;28;20264;-63
2024/01/30 18:42:41;;;;;;;14.47;12.97;;;5.70;99.90;;;6.45;95.87;99442.91;10413950;28;20715;-65
2024/01/30 18:47:44;;;;;;;13.10;11.80;;;5.70;99.90;;;6.47;95.64;99446.53;10406172;28;20244;-64
2024/01/30 18:52:49;;;;;;;11.87;10.77;;;5.70;99.90;;;6.45;95.30;99446.34;10406707;28;20690;-65
2024/01/30 18:57:52;;;;;;;9.73;8.83;;;5.60;99.90;;;6.49;95.75;99443.34;10409079;28;20596;-65
2024/01/30 19:02:55;;;;;;;10.23;9.23;;;5.70;99.90;;;6.48;95.04;99450.84;10406991;28;20595;-64
2024/01/30 19:08:00;;;;;;;10.33;9.33;;;5.60;99.90;;;6.39;95.02;99449.94;10407979;28;20712;-64
2024/01/30 19:13:03;;;;;;;11.37;10.27;;;5.60;99.90;;;6.34;95.37;99451.13;10426849;28;20602;-64
2024/01/30 19:18:07;;;;;;;12.20;10.80;;;5.60;99.90;;;6.24;95.84;99450.22;10408903;28;20233;-65
2024/01/30 19:23:12;;;;;;;12.63;11.33;;;5.50;99.90;;;6.34;95.91;99451.13;10411872;28;20379;-65
2024/01/30 19:28:15;;;;;;;11.33;10.13;;;5.60;99.90;;;6.32;95.85;99462.03;10403504;28;20590;-64
2024/01/30 19:33:18;;;;;;;8.57;7.87;;;5.60;99.90;;;6.37;95.44;99461.59;10408882;28;20705;-64
2024/01/30 19:38:24;;;;;;;9.43;8.53;;;5.60;99.90;;;6.37;95.78;99453.97;10414389;28;20236;-65
2024/01/30 19:43:27;;;;;;;9.30;8.30;;;5.60;99.90;;;6.44;95.65;99448.72;10417991;28;20308;-65
2024/01/30 19:48:30;;;;;;;13.83;12.53;;;5.60;99.90;;;6.23;96.40;99444.97;10412810;28;20729;-65
2024/01/30 19:53:35;;;;;;;15.93;14.33;;;5.50;99.90;;;6.20;97.19;99450.63;10420636;28;20664;-64
2024/01/30 19:58:38;;;;;;;15.83;14.33;;;5.50;99.90;;;6.20;96.81;99450.63;10407081;28;20740;-64
2024/01/30 20:03:41;;;;;;;18.40;16.70;;;5.50;99.90;;;6.26;96.79;99443.63;10406147;28;21023;-64
2024/01/30 20:08:46;;;;;;;11.20;10.10;;;5.50;99.90;;;6.25;97.43;99441.84;10405959;28;20685;-64
2024/01/30 20:13:49;;;;;;;12.77;11.57;;;5.50;99.90;;;6.21;98.10;99442.28;10408258;28;20257;-65
2024/01/30 20:18:52;;;;;;;9.67;8.77;;;5.50;99.90;;;6.20;97.77;99439.59;10409317;28;20733;-65
2024/01/30 20:23:57;;;;;;;12.77;11.47;;;5.40;99.90;;;6.19;97.41;99451.41;10410994;28;20339;-65
2024/01/30 20:29:00;;;;;;;11.33;10.23;;;5.40;99.90;;;6.20;97.65;99454.81;10409822;28;20719;-63
2024/01/30 20:34:04;;;;;;;11.10;10.10;;;5.40;99.90;;;6.23;97.19;99463.63;10410106;28;20230;-65
2024/01/30 20:39:10;;;;;;;13.90;12.50;;;5.50;99.90;;;6.26;96.99;99460.50;10410786;28;20224;-65
2024/01/30 20:44:15;;;;;;;14.47;13.03;;;5.40;99.90;;;6.16;97.24;99467.97;10408038;28;20237;-64
2024/01/30 20:49:18;;;;;;;13.97;12.67;;;5.40;99.90;;;6.15;97.70;99466.16;10417015;28;20721;-65
2024/01/30 20:54:23;;;;;;;14.97;13.57;;;5.30;99.90;;;6.07;98.82;99468.84;10429193;28;20823;-65
2024/01/30 20:59:26;;;;;;;14.60;13.20;;;5.30;99.90;;;6.06;98.48;99461.06;10435234;28;20225;-65
2024/01/30 21:04:29;;;;;;;14.17;12.77;;;5.30;99.90;;;6.07;98.01;99470.47;10436595;28;20220;-66